sensor_id;sensor_type;location;lat;lon;timestamp;P1;durP1;ratioP1;P2;durP2;ratioP2
9138;SDS011;4604;48.616;9.548;2024-01-07T00:00:22;17.67;;;10.50;;
9138;SDS011;4604;48.616;9.548;2024-01-07T00:02:49;16.87;;;10.23;;
9138;SDS011;4604;48.616;9.548;2024-01-07T00:05:15;15.13;;;9.07;;
9138;SDS011;4604;48.616;9.548;2024-01-07T00:07:44;16.67;;;9.53;;
9138;SDS011;4604;48.616;9.548;2024-01-07T00:10:10;15.93;;;9.47;;
9138;SDS011;4604;48.616;9.548;2024-01-07T00:12:37;18.87;;;10.43;;
9138;SDS011;4604;48.616;9.548;2024-01-07T00:15:05;17.67;;;9.77;;
9138;SDS011;4604;48.616;9.548;2024-01-07T00:17:32;15.37;;;9.07;;
9138;SDS011;4604;48.616;9.548;2024-01-07T00:20:05;19.30;;;9.80;;
9138;SDS011;4604;48.616;9.548;2024-01-07T00:22:34;16.03;;;9.03;;
9138;SDS011;4604;48.616;9.548;2024-01-07T00:25:03;18.77;;;9.53;;
9138;SDS011;4604;48.616;9.548;2024-01-07T00:27:30;17.80;;;9.77;;
9138;SDS011;4604;48.616;9.548;2024-01-07T00:29:56;15.93;;;10.17;;
9138;SDS011;4604;48.616;9.548;2024-01-07T00:32:23;17.10;;;10.23;;
9138;SDS011;4604;48.616;9.548;2024-01-07T00:34:50;18.63;;;9.13;;
9138;SDS011;4604;48.616;9.548;2024-01-07T00:37:17;15.17;;;9.00;;
9138;SDS011;4604;48.616;9.548;2024-01-07T00:39:45;18.03;;;9.77;;
9138;SDS011;4604;48.616;9.548;2024-01-07T00:42:15;17.43;;;9.83;;
9138;SDS011;4604;48.616;9.548;2024-01-07T00:44:42;17.10;;;9.90;;
9138;SDS011;4604;48.616;9.548;2024-01-07T00:47:10;14.03;;;8.47;;
9138;SDS011;4604;48.616;9.548;2024-01-07T00:49:39;16.30;;;9.90;;
9138;SDS011;4604;48.616;9.548;2024-01-07T00:52:06;18.17;;;9.23;;
9138;SDS011;4604;48.616;9.548;2024-01-07T00:54:33;16.73;;;9.47;;
9138;SDS011;4604;48.616;9.548;2024-01-07T00:57:00;13.60;;;8.47;;
9138;SDS011;4604;48.616;9.548;2024-01-07T00:59:29;16.93;;;9.53;;
9138;SDS011;4604;48.616;9.548;2024-01-07T01:01:56;15.40;;;9.57;;
9138;SDS011;4604;48.616;9.548;2024-01-07T01:04:22;16.20;;;9.37;;
9138;SDS011;4604;48.616;9.548;2024-01-07T01:06:49;15.17;;;9.83;;
9138;SDS011;4604;48.616;9.548;2024-01-07T01:09:16;18.73;;;9.97;;
9138;SDS011;4604;48.616;9.548;2024-01-07T01:11:44;17.47;;;9.13;;
9138;SDS011;4604;48.616;9.548;2024-01-07T01:14:11;14.60;;;9.13;;
9138;SDS011;4604;48.616;9.548;2024-01-07T01:16:39;17.50;;;9.47;;
9138;SDS011;4604;48.616;9.548;2024-01-07T01:19:06;15.67;;;8.77;;
9138;SDS011;4604;48.616;9.548;2024-01-07T01:21:33;17.80;;;9.57;;
9138;SDS011;4604;48.616;9.548;2024-01-07T01:24:00;16.47;;;9.10;;
9138;SDS011;4604;48.616;9.548;2024-01-07T01:26:27;19.00;;;9.60;;
9138;SDS011;4604;48.616;9.548;2024-01-07T01:28:53;18.63;;;9.57;;
9138;SDS011;4604;48.616;9.548;2024-01-07T01:31:20;15.57;;;8.77;;
9138;SDS011;4604;48.616;9.548;2024-01-07T01:33:48;15.87;;;9.27;;
9138;SDS011;4604;48.616;9.548;2024-01-07T01:36:15;15.13;;;9.37;;
9138;SDS011;4604;48.616;9.548;2024-01-07T01:38:42;18.13;;;8.90;;
9138;SDS011;4604;48.616;9.548;2024-01-07T01:41:08;18.17;;;9.50;;
9138;SDS011;4604;48.616;9.548;2024-01-07T01:43:35;16.27;;;8.73;;
9138;SDS011;4604;48.616;9.548;2024-01-07T01:46:02;14.37;;;8.50;;
9138;SDS011;4604;48.616;9.548;2024-01-07T01:48:29;14.87;;;8.60;;
9138;SDS011;4604;48.616;9.548;2024-01-07T01:50:57;14.70;;;9.37;;
9138;SDS011;4604;48.616;9.548;2024-01-07T01:53:24;16.47;;;8.70;;
9138;SDS011;4604;48.616;9.548;2024-01-07T01:55:52;16.67;;;9.53;;
9138;SDS011;4604;48.616;9.548;2024-01-07T01:58:20;20.00;;;9.90;;
9138;SDS011;4604;48.616;9.548;2024-01-07T02:00:48;21.73;;;10.63;;
9138;SDS011;4604;48.616;9.548;2024-01-07T02:03:16;19.20;;;10.63;;
9138;SDS011;4604;48.616;9.548;2024-01-07T02:05:42;17.40;;;9.83;;
9138;SDS011;4604;48.616;9.548;2024-01-07T02:08:11;19.87;;;9.83;;
9138;SDS011;4604;48.616;9.548;2024-01-07T02:10:39;16.80;;;9.80;;
9138;SDS011;4604;48.616;9.548;2024-01-07T02:13:06;16.30;;;10.00;;
9138;SDS011;4604;48.616;9.548;2024-01-07T02:15:33;16.07;;;9.00;;
9138;SDS011;4604;48.616;9.548;2024-01-07T02:18:00;19.10;;;10.17;;
9138;SDS011;4604;48.616;9.548;2024-01-07T02:20:27;21.03;;;11.17;;
9138;SDS011;4604;48.616;9.548;2024-01-07T02:22:53;19.43;;;9.37;;
9138;SDS011;4604;48.616;9.548;2024-01-07T02:25:24;17.50;;;9.60;;
9138;SDS011;4604;48.616;9.548;2024-01-07T02:27:51;18.97;;;10.60;;
9138;SDS011;4604;48.616;9.548;2024-01-07T02:30:17;18.63;;;10.00;;
9138;SDS011;4604;48.616;9.548;2024-01-07T02:32:44;17.00;;;10.03;;
9138;SDS011;4604;48.616;9.548;2024-01-07T02:35:11;20.23;;;11.10;;
9138;SDS011;4604;48.616;9.548;2024-01-07T02:37:38;19.10;;;10.57;;
9138;SDS011;4604;48.616;9.548;2024-01-07T02:40:05;19.17;;;10.80;;
9138;SDS011;4604;48.616;9.548;2024-01-07T02:42:34;18.83;;;10.80;;
9138;SDS011;4604;48.616;9.548;2024-01-07T02:45:01;16.70;;;10.30;;
9138;SDS011;4604;48.616;9.548;2024-01-07T02:47:27;21.50;;;10.87;;
9138;SDS011;4604;48.616;9.548;2024-01-07T02:49:54;23.20;;;10.57;;
9138;SDS011;4604;48.616;9.548;2024-01-07T02:52:21;17.97;;;10.20;;
9138;SDS011;4604;48.616;9.548;2024-01-07T02:54:47;18.53;;;9.63;;
9138;SDS011;4604;48.616;9.548;2024-01-07T02:57:14;18.50;;;10.27;;
9138;SDS011;4604;48.616;9.548;2024-01-07T02:59:42;17.70;;;10.20;;
9138;SDS011;4604;48.616;9.548;2024-01-07T03:02:09;17.63;;;10.23;;
9138;SDS011;4604;48.616;9.548;2024-01-07T03:04:36;17.43;;;9.90;;
9138;SDS011;4604;48.616;9.548;2024-01-07T03:07:02;17.53;;;10.47;;
9138;SDS011;4604;48.616;9.548;2024-01-07T03:09:29;18.17;;;10.27;;
9138;SDS011;4604;48.616;9.548;2024-01-07T03:11:56;17.23;;;9.97;;
9138;SDS011;4604;48.616;9.548;2024-01-07T03:14:23;20.97;;;10.43;;
9138;SDS011;4604;48.616;9.548;2024-01-07T03:16:51;22.50;;;10.63;;
9138;SDS011;4604;48.616;9.548;2024-01-07T03:19:17;18.43;;;10.73;;
9138;SDS011;4604;48.616;9.548;2024-01-07T03:21:45;20.93;;;10.67;;
9138;SDS011;4604;48.616;9.548;2024-01-07T03:24:12;19.73;;;11.00;;
9138;SDS011;4604;48.616;9.548;2024-01-07T03:26:39;20.80;;;12.20;;
9138;SDS011;4604;48.616;9.548;2024-01-07T03:29:06;21.33;;;11.60;;
9138;SDS011;4604;48.616;9.548;2024-01-07T03:31:32;17.57;;;10.07;;
9138;SDS011;4604;48.616;9.548;2024-01-07T03:34:01;19.53;;;10.03;;
9138;SDS011;4604;48.616;9.548;2024-01-07T03:36:27;17.47;;;9.70;;
9138;SDS011;4604;48.616;9.548;2024-01-07T03:38:54;18.73;;;11.43;;
9138;SDS011;4604;48.616;9.548;2024-01-07T03:41:21;19.23;;;10.93;;
9138;SDS011;4604;48.616;9.548;2024-01-07T03:43:48;20.63;;;10.97;;
9138;SDS011;4604;48.616;9.548;2024-01-07T03:46:15;23.13;;;10.90;;
9138;SDS011;4604;48.616;9.548;2024-01-07T03:48:42;17.67;;;10.53;;
9138;SDS011;4604;48.616;9.548;2024-01-07T03:51:10;19.37;;;11.40;;
9138;SDS011;4604;48.616;9.548;2024-01-07T03:53:37;20.53;;;12.33;;
9138;SDS011;4604;48.616;9.548;2024-01-07T03:56:04;20.27;;;11.50;;
9138;SDS011;4604;48.616;9.548;2024-01-07T03:58:31;20.63;;;11.67;;
9138;SDS011;4604;48.616;9.548;2024-01-07T04:00:58;20.73;;;10.77;;
9138;SDS011;4604;48.616;9.548;2024-01-07T04:03:25;18.03;;;10.00;;
9138;SDS011;4604;48.616;9.548;2024-01-07T04:05:52;17.77;;;10.13;;
9138;SDS011;4604;48.616;9.548;2024-01-07T04:08:20;22.27;;;11.13;;
9138;SDS011;4604;48.616;9.548;2024-01-07T04:10:47;19.80;;;10.00;;
9138;SDS011;4604;48.616;9.548;2024-01-07T04:13:14;17.93;;;10.13;;
9138;SDS011;4604;48.616;9.548;2024-01-07T04:15:40;17.57;;;9.57;;
9138;SDS011;4604;48.616;9.548;2024-01-07T04:18:07;16.20;;;9.83;;
9138;SDS011;4604;48.616;9.548;2024-01-07T04:20:34;14.77;;;9.60;;
9138;SDS011;4604;48.616;9.548;2024-01-07T04:23:00;17.13;;;9.87;;
9138;SDS011;4604;48.616;9.548;2024-01-07T04:25:29;13.67;;;9.10;;
9138;SDS011;4604;48.616;9.548;2024-01-07T04:27:55;15.70;;;9.40;;
9138;SDS011;4604;48.616;9.548;2024-01-07T04:30:22;16.83;;;9.60;;
9138;SDS011;4604;48.616;9.548;2024-01-07T04:32:49;18.00;;;10.47;;
9138;SDS011;4604;48.616;9.548;2024-01-07T04:35:15;16.83;;;9.17;;
9138;SDS011;4604;48.616;9.548;2024-01-07T04:37:42;19.07;;;9.83;;
9138;SDS011;4604;48.616;9.548;2024-01-07T04:40:10;20.00;;;10.70;;
9138;SDS011;4604;48.616;9.548;2024-01-07T04:42:38;17.30;;;10.13;;
9138;SDS011;4604;48.616;9.548;2024-01-07T04:45:05;17.50;;;10.37;;
9138;SDS011;4604;48.616;9.548;2024-01-07T04:47:34;16.70;;;9.37;;
9138;SDS011;4604;48.616;9.548;2024-01-07T05:07:00;18.70;;;10.33;;
9138;SDS011;4604;48.616;9.548;2024-01-07T05:09:26;17.03;;;9.70;;
9138;SDS011;4604;48.616;9.548;2024-01-07T05:11:53;18.07;;;9.67;;
9138;SDS011;4604;48.616;9.548;2024-01-07T05:14:20;18.17;;;10.27;;
9138;SDS011;4604;48.616;9.548;2024-01-07T05:16:47;18.77;;;10.43;;
9138;SDS011;4604;48.616;9.548;2024-01-07T05:19:14;17.03;;;9.73;;
9138;SDS011;4604;48.616;9.548;2024-01-07T05:21:41;15.90;;;9.27;;
9138;SDS011;4604;48.616;9.548;2024-01-07T06:01:07;17.90;;;10.40;;
9138;SDS011;4604;48.616;9.548;2024-01-07T06:03:34;17.53;;;10.30;;
9138;SDS011;4604;48.616;9.548;2024-01-07T06:06:01;17.37;;;9.97;;
9138;SDS011;4604;48.616;9.548;2024-01-07T06:08:28;16.93;;;10.10;;
9138;SDS011;4604;48.616;9.548;2024-01-07T06:10:54;16.67;;;10.73;;
9138;SDS011;4604;48.616;9.548;2024-01-07T06:13:21;19.07;;;11.07;;
9138;SDS011;4604;48.616;9.548;2024-01-07T06:15:49;16.17;;;8.90;;
9138;SDS011;4604;48.616;9.548;2024-01-07T06:18:16;18.43;;;10.00;;
9138;SDS011;4604;48.616;9.548;2024-01-07T06:20:43;20.27;;;10.87;;
9138;SDS011;4604;48.616;9.548;2024-01-07T06:23:09;19.33;;;10.70;;
9138;SDS011;4604;48.616;9.548;2024-01-07T06:25:36;19.00;;;10.50;;
9138;SDS011;4604;48.616;9.548;2024-01-07T06:28:04;18.00;;;11.20;;
9138;SDS011;4604;48.616;9.548;2024-01-07T06:30:31;14.40;;;8.80;;
9138;SDS011;4604;48.616;9.548;2024-01-07T06:32:59;15.93;;;9.90;;
9138;SDS011;4604;48.616;9.548;2024-01-07T06:35:26;17.00;;;9.33;;
9138;SDS011;4604;48.616;9.548;2024-01-07T06:37:53;20.80;;;10.20;;
9138;SDS011;4604;48.616;9.548;2024-01-07T06:40:22;17.97;;;10.10;;
9138;SDS011;4604;48.616;9.548;2024-01-07T06:42:49;16.73;;;9.77;;
9138;SDS011;4604;48.616;9.548;2024-01-07T06:45:16;17.17;;;10.17;;
9138;SDS011;4604;48.616;9.548;2024-01-07T06:47:43;18.90;;;10.53;;
9138;SDS011;4604;48.616;9.548;2024-01-07T06:50:12;17.47;;;10.97;;
9138;SDS011;4604;48.616;9.548;2024-01-07T06:52:40;17.00;;;10.13;;
9138;SDS011;4604;48.616;9.548;2024-01-07T06:55:07;20.40;;;10.57;;
9138;SDS011;4604;48.616;9.548;2024-01-07T06:57:34;16.43;;;9.93;;
9138;SDS011;4604;48.616;9.548;2024-01-07T07:00:01;17.60;;;10.40;;
9138;SDS011;4604;48.616;9.548;2024-01-07T07:02:29;16.83;;;10.17;;
9138;SDS011;4604;48.616;9.548;2024-01-07T07:04:56;16.97;;;10.33;;
9138;SDS011;4604;48.616;9.548;2024-01-07T07:07:24;15.10;;;9.77;;
9138;SDS011;4604;48.616;9.548;2024-01-07T07:09:51;17.77;;;11.37;;
9138;SDS011;4604;48.616;9.548;2024-01-07T07:12:18;17.20;;;10.47;;
9138;SDS011;4604;48.616;9.548;2024-01-07T07:14:44;15.73;;;9.90;;
9138;SDS011;4604;48.616;9.548;2024-01-07T07:17:11;21.10;;;11.40;;
9138;SDS011;4604;48.616;9.548;2024-01-07T07:19:38;18.67;;;11.47;;
9138;SDS011;4604;48.616;9.548;2024-01-07T07:22:05;20.17;;;10.80;;
9138;SDS011;4604;48.616;9.548;2024-01-07T07:24:33;22.33;;;11.37;;
9138;SDS011;4604;48.616;9.548;2024-01-07T07:27:00;18.13;;;10.63;;
9138;SDS011;4604;48.616;9.548;2024-01-07T07:29:26;16.10;;;9.87;;
9138;SDS011;4604;48.616;9.548;2024-01-07T07:31:53;20.57;;;11.03;;
9138;SDS011;4604;48.616;9.548;2024-01-07T07:34:20;21.37;;;11.20;;
9138;SDS011;4604;48.616;9.548;2024-01-07T07:36:46;19.20;;;10.80;;
9138;SDS011;4604;48.616;9.548;2024-01-07T07:39:13;20.13;;;11.20;;
9138;SDS011;4604;48.616;9.548;2024-01-07T07:41:41;21.20;;;10.67;;
9138;SDS011;4604;48.616;9.548;2024-01-07T07:44:08;21.30;;;11.47;;
9138;SDS011;4604;48.616;9.548;2024-01-07T07:46:34;21.17;;;11.20;;
9138;SDS011;4604;48.616;9.548;2024-01-07T07:49:01;19.13;;;10.70;;
9138;SDS011;4604;48.616;9.548;2024-01-07T07:51:28;16.10;;;10.13;;
9138;SDS011;4604;48.616;9.548;2024-01-07T07:53:55;17.77;;;9.90;;
9138;SDS011;4604;48.616;9.548;2024-01-07T07:56:22;14.97;;;9.67;;
9138;SDS011;4604;48.616;9.548;2024-01-07T07:58:50;18.87;;;9.97;;
9138;SDS011;4604;48.616;9.548;2024-01-07T08:01:17;16.83;;;9.70;;
9138;SDS011;4604;48.616;9.548;2024-01-07T08:03:44;16.50;;;10.33;;
9138;SDS011;4604;48.616;9.548;2024-01-07T08:06:11;15.83;;;9.47;;
9138;SDS011;4604;48.616;9.548;2024-01-07T08:08:38;15.03;;;9.47;;
9138;SDS011;4604;48.616;9.548;2024-01-07T08:11:05;18.27;;;9.80;;
9138;SDS011;4604;48.616;9.548;2024-01-07T08:13:34;14.80;;;8.63;;
9138;SDS011;4604;48.616;9.548;2024-01-07T08:16:03;15.77;;;8.63;;
9138;SDS011;4604;48.616;9.548;2024-01-07T08:18:31;14.63;;;8.77;;
9138;SDS011;4604;48.616;9.548;2024-01-07T08:20:58;15.77;;;8.40;;
9138;SDS011;4604;48.616;9.548;2024-01-07T08:23:25;15.00;;;9.37;;
9138;SDS011;4604;48.616;9.548;2024-01-07T08:25:52;14.73;;;8.73;;
9138;SDS011;4604;48.616;9.548;2024-01-07T08:28:19;15.40;;;9.20;;
9138;SDS011;4604;48.616;9.548;2024-01-07T08:30:46;16.67;;;9.13;;
9138;SDS011;4604;48.616;9.548;2024-01-07T08:33:15;14.13;;;8.77;;
9138;SDS011;4604;48.616;9.548;2024-01-07T08:35:42;18.40;;;9.33;;
9138;SDS011;4604;48.616;9.548;2024-01-07T08:38:08;14.10;;;8.37;;
9138;SDS011;4604;48.616;9.548;2024-01-07T08:40:35;13.97;;;8.40;;
9138;SDS011;4604;48.616;9.548;2024-01-07T08:43:01;16.40;;;8.93;;
9138;SDS011;4604;48.616;9.548;2024-01-07T08:45:28;14.63;;;8.37;;
9138;SDS011;4604;48.616;9.548;2024-01-07T08:47:55;15.47;;;8.97;;
9138;SDS011;4604;48.616;9.548;2024-01-07T08:50:23;16.63;;;8.83;;
9138;SDS011;4604;48.616;9.548;2024-01-07T08:52:50;15.03;;;8.67;;
9138;SDS011;4604;48.616;9.548;2024-01-07T08:55:17;18.97;;;10.03;;
9138;SDS011;4604;48.616;9.548;2024-01-07T08:57:44;15.73;;;8.97;;
9138;SDS011;4604;48.616;9.548;2024-01-07T09:00:14;14.83;;;8.93;;
9138;SDS011;4604;48.616;9.548;2024-01-07T09:02:44;15.63;;;8.67;;
9138;SDS011;4604;48.616;9.548;2024-01-07T09:05:11;16.63;;;9.37;;
9138;SDS011;4604;48.616;9.548;2024-01-07T09:07:40;15.97;;;8.83;;
9138;SDS011;4604;48.616;9.548;2024-01-07T09:10:07;15.30;;;8.97;;
9138;SDS011;4604;48.616;9.548;2024-01-07T09:12:35;15.27;;;8.90;;
9138;SDS011;4604;48.616;9.548;2024-01-07T09:15:04;17.23;;;9.33;;
9138;SDS011;4604;48.616;9.548;2024-01-07T09:17:32;14.50;;;8.03;;
9138;SDS011;4604;48.616;9.548;2024-01-07T09:20:01;14.90;;;8.73;;
9138;SDS011;4604;48.616;9.548;2024-01-07T09:22:29;15.43;;;8.37;;
9138;SDS011;4604;48.616;9.548;2024-01-07T09:24:57;15.33;;;8.37;;
9138;SDS011;4604;48.616;9.548;2024-01-07T09:27:24;19.00;;;9.93;;
9138;SDS011;4604;48.616;9.548;2024-01-07T09:29:51;15.43;;;7.83;;
9138;SDS011;4604;48.616;9.548;2024-01-07T09:32:18;15.07;;;8.17;;
9138;SDS011;4604;48.616;9.548;2024-01-07T09:34:44;16.70;;;8.20;;
9138;SDS011;4604;48.616;9.548;2024-01-07T09:37:11;15.80;;;9.07;;
9138;SDS011;4604;48.616;9.548;2024-01-07T09:39:38;14.60;;;8.80;;
9138;SDS011;4604;48.616;9.548;2024-01-07T09:42:07;16.97;;;9.00;;
9138;SDS011;4604;48.616;9.548;2024-01-07T09:44:39;17.33;;;8.30;;
9138;SDS011;4604;48.616;9.548;2024-01-07T09:47:07;15.80;;;7.63;;
9138;SDS011;4604;48.616;9.548;2024-01-07T09:49:37;14.10;;;8.03;;
9138;SDS011;4604;48.616;9.548;2024-01-07T09:52:04;14.67;;;7.57;;
9138;SDS011;4604;48.616;9.548;2024-01-07T09:54:31;15.10;;;8.43;;
9138;SDS011;4604;48.616;9.548;2024-01-07T09:57:00;11.97;;;6.90;;
9138;SDS011;4604;48.616;9.548;2024-01-07T09:59:29;20.17;;;7.50;;
9138;SDS011;4604;48.616;9.548;2024-01-07T10:01:56;14.63;;;7.07;;
9138;SDS011;4604;48.616;9.548;2024-01-07T10:04:23;11.73;;;6.20;;
9138;SDS011;4604;48.616;9.548;2024-01-07T10:06:51;11.17;;;6.33;;
9138;SDS011;4604;48.616;9.548;2024-01-07T10:09:19;13.87;;;6.87;;
9138;SDS011;4604;48.616;9.548;2024-01-07T10:11:45;10.60;;;6.53;;
9138;SDS011;4604;48.616;9.548;2024-01-07T10:14:12;11.13;;;6.30;;
9138;SDS011;4604;48.616;9.548;2024-01-07T10:16:41;9.17;;;5.83;;
9138;SDS011;4604;48.616;9.548;2024-01-07T10:19:08;11.23;;;5.80;;
9138;SDS011;4604;48.616;9.548;2024-01-07T10:21:35;8.63;;;5.23;;
9138;SDS011;4604;48.616;9.548;2024-01-07T10:24:08;12.33;;;6.80;;
9138;SDS011;4604;48.616;9.548;2024-01-07T10:26:43;9.33;;;5.53;;
9138;SDS011;4604;48.616;9.548;2024-01-07T10:29:10;10.07;;;5.73;;
9138;SDS011;4604;48.616;9.548;2024-01-07T10:31:37;10.23;;;5.97;;
9138;SDS011;4604;48.616;9.548;2024-01-07T10:34:08;8.43;;;5.57;;
9138;SDS011;4604;48.616;9.548;2024-01-07T10:36:35;10.37;;;5.60;;
9138;SDS011;4604;48.616;9.548;2024-01-07T10:39:03;8.23;;;5.47;;
9138;SDS011;4604;48.616;9.548;2024-01-07T10:41:30;10.17;;;5.63;;
9138;SDS011;4604;48.616;9.548;2024-01-07T10:43:58;13.20;;;6.20;;
9138;SDS011;4604;48.616;9.548;2024-01-07T10:46:25;11.73;;;6.47;;
9138;SDS011;4604;48.616;9.548;2024-01-07T10:48:58;10.00;;;6.07;;
9138;SDS011;4604;48.616;9.548;2024-01-07T10:51:32;9.10;;;5.83;;
9138;SDS011;4604;48.616;9.548;2024-01-07T10:54:01;9.17;;;5.87;;
9138;SDS011;4604;48.616;9.548;2024-01-07T10:56:30;11.97;;;6.07;;
9138;SDS011;4604;48.616;9.548;2024-01-07T10:59:04;8.97;;;5.77;;
9138;SDS011;4604;48.616;9.548;2024-01-07T11:01:31;10.23;;;5.77;;
9138;SDS011;4604;48.616;9.548;2024-01-07T11:04:00;10.73;;;5.97;;
9138;SDS011;4604;48.616;9.548;2024-01-07T11:06:35;9.87;;;5.93;;
9138;SDS011;4604;48.616;9.548;2024-01-07T11:09:12;8.40;;;5.53;;
9138;SDS011;4604;48.616;9.548;2024-01-07T11:11:58;9.70;;;5.43;;
9138;SDS011;4604;48.616;9.548;2024-01-07T11:14:35;12.47;;;6.27;;
9138;SDS011;4604;48.616;9.548;2024-01-07T11:17:10;9.57;;;5.87;;
9138;SDS011;4604;48.616;9.548;2024-01-07T11:19:38;9.83;;;6.07;;
9138;SDS011;4604;48.616;9.548;2024-01-07T11:22:24;9.87;;;6.20;;
9138;SDS011;4604;48.616;9.548;2024-01-07T11:24:52;9.60;;;5.83;;
9138;SDS011;4604;48.616;9.548;2024-01-07T11:27:21;11.37;;;6.47;;
9138;SDS011;4604;48.616;9.548;2024-01-07T11:29:55;12.83;;;6.13;;
9138;SDS011;4604;48.616;9.548;2024-01-07T11:32:22;10.40;;;6.37;;
9138;SDS011;4604;48.616;9.548;2024-01-07T11:34:51;10.63;;;5.57;;
9138;SDS011;4604;48.616;9.548;2024-01-07T11:37:19;9.97;;;5.60;;
9138;SDS011;4604;48.616;9.548;2024-01-07T11:39:48;10.57;;;5.77;;
9138;SDS011;4604;48.616;9.548;2024-01-07T11:42:17;9.83;;;5.93;;
9138;SDS011;4604;48.616;9.548;2024-01-07T11:44:47;10.53;;;5.87;;
9138;SDS011;4604;48.616;9.548;2024-01-07T11:47:15;11.23;;;6.23;;
9138;SDS011;4604;48.616;9.548;2024-01-07T11:49:42;10.60;;;5.97;;
9138;SDS011;4604;48.616;9.548;2024-01-07T11:52:09;11.87;;;6.60;;
9138;SDS011;4604;48.616;9.548;2024-01-07T11:54:36;11.90;;;6.53;;
9138;SDS011;4604;48.616;9.548;2024-01-07T11:57:05;10.23;;;5.97;;
9138;SDS011;4604;48.616;9.548;2024-01-07T11:59:33;11.13;;;6.73;;
9138;SDS011;4604;48.616;9.548;2024-01-07T12:02:00;10.00;;;6.20;;
9138;SDS011;4604;48.616;9.548;2024-01-07T12:04:29;10.77;;;6.07;;
9138;SDS011;4604;48.616;9.548;2024-01-07T12:06:56;11.67;;;5.87;;
9138;SDS011;4604;48.616;9.548;2024-01-07T12:09:23;13.17;;;6.30;;
9138;SDS011;4604;48.616;9.548;2024-01-07T12:11:50;11.40;;;6.30;;
9138;SDS011;4604;48.616;9.548;2024-01-07T12:14:18;8.63;;;5.77;;
9138;SDS011;4604;48.616;9.548;2024-01-07T12:16:46;9.17;;;6.10;;
9138;SDS011;4604;48.616;9.548;2024-01-07T12:19:13;10.53;;;6.03;;
9138;SDS011;4604;48.616;9.548;2024-01-07T12:21:40;11.07;;;6.33;;
9138;SDS011;4604;48.616;9.548;2024-01-07T12:24:07;10.17;;;6.23;;
9138;SDS011;4604;48.616;9.548;2024-01-07T12:26:33;9.47;;;5.87;;
9138;SDS011;4604;48.616;9.548;2024-01-07T12:29:02;11.27;;;6.20;;
9138;SDS011;4604;48.616;9.548;2024-01-07T12:31:34;9.30;;;6.00;;
9138;SDS011;4604;48.616;9.548;2024-01-07T12:34:02;11.17;;;6.00;;
9138;SDS011;4604;48.616;9.548;2024-01-07T12:36:29;11.43;;;6.17;;
9138;SDS011;4604;48.616;9.548;2024-01-07T12:38:57;10.40;;;5.80;;
9138;SDS011;4604;48.616;9.548;2024-01-07T12:41:23;11.77;;;6.40;;
9138;SDS011;4604;48.616;9.548;2024-01-07T12:43:50;11.73;;;6.73;;
9138;SDS011;4604;48.616;9.548;2024-01-07T12:46:17;10.33;;;6.73;;
9138;SDS011;4604;48.616;9.548;2024-01-07T12:48:45;10.20;;;6.10;;
9138;SDS011;4604;48.616;9.548;2024-01-07T12:51:12;9.73;;;6.07;;
9138;SDS011;4604;48.616;9.548;2024-01-07T12:53:39;11.93;;;6.57;;
9138;SDS011;4604;48.616;9.548;2024-01-07T12:56:06;12.50;;;6.53;;
9138;SDS011;4604;48.616;9.548;2024-01-07T12:58:33;12.40;;;6.73;;
9138;SDS011;4604;48.616;9.548;2024-01-07T13:01:03;12.20;;;6.77;;
9138;SDS011;4604;48.616;9.548;2024-01-07T13:03:30;10.20;;;6.10;;
9138;SDS011;4604;48.616;9.548;2024-01-07T13:05:58;11.67;;;6.30;;
9138;SDS011;4604;48.616;9.548;2024-01-07T13:08:26;12.70;;;7.30;;
9138;SDS011;4604;48.616;9.548;2024-01-07T13:10:53;11.43;;;6.73;;
9138;SDS011;4604;48.616;9.548;2024-01-07T13:13:21;10.07;;;6.37;;
9138;SDS011;4604;48.616;9.548;2024-01-07T13:15:47;14.13;;;7.17;;
9138;SDS011;4604;48.616;9.548;2024-01-07T13:18:16;15.33;;;8.23;;
9138;SDS011;4604;48.616;9.548;2024-01-07T13:20:42;13.70;;;7.80;;
9138;SDS011;4604;48.616;9.548;2024-01-07T13:23:11;12.00;;;6.97;;
9138;SDS011;4604;48.616;9.548;2024-01-07T13:25:37;11.93;;;6.80;;
9138;SDS011;4604;48.616;9.548;2024-01-07T13:28:04;16.37;;;8.23;;
9138;SDS011;4604;48.616;9.548;2024-01-07T13:30:39;14.10;;;7.37;;
9138;SDS011;4604;48.616;9.548;2024-01-07T13:33:07;12.07;;;7.30;;
9138;SDS011;4604;48.616;9.548;2024-01-07T13:35:34;16.47;;;8.23;;
9138;SDS011;4604;48.616;9.548;2024-01-07T13:38:01;12.63;;;7.93;;
9138;SDS011;4604;48.616;9.548;2024-01-07T13:40:30;16.93;;;8.63;;
9138;SDS011;4604;48.616;9.548;2024-01-07T13:42:57;15.80;;;9.03;;
9138;SDS011;4604;48.616;9.548;2024-01-07T13:45:23;13.63;;;8.00;;
9138;SDS011;4604;48.616;9.548;2024-01-07T13:47:50;13.40;;;7.50;;
9138;SDS011;4604;48.616;9.548;2024-01-07T13:50:20;16.63;;;8.63;;
9138;SDS011;4604;48.616;9.548;2024-01-07T13:52:47;14.37;;;8.50;;
9138;SDS011;4604;48.616;9.548;2024-01-07T13:55:13;13.37;;;8.47;;
9138;SDS011;4604;48.616;9.548;2024-01-07T13:57:42;16.80;;;9.47;;
9138;SDS011;4604;48.616;9.548;2024-01-07T14:00:09;16.40;;;8.90;;
9138;SDS011;4604;48.616;9.548;2024-01-07T14:02:43;14.83;;;9.20;;
9138;SDS011;4604;48.616;9.548;2024-01-07T14:05:10;15.27;;;8.23;;
9138;SDS011;4604;48.616;9.548;2024-01-07T14:07:37;15.50;;;8.60;;
9138;SDS011;4604;48.616;9.548;2024-01-07T14:10:05;15.50;;;8.87;;
9138;SDS011;4604;48.616;9.548;2024-01-07T14:12:33;17.10;;;8.40;;
9138;SDS011;4604;48.616;9.548;2024-01-07T14:15:02;17.30;;;9.23;;
9138;SDS011;4604;48.616;9.548;2024-01-07T14:17:29;17.87;;;8.73;;
9138;SDS011;4604;48.616;9.548;2024-01-07T14:19:56;15.90;;;8.93;;
9138;SDS011;4604;48.616;9.548;2024-01-07T14:22:23;17.30;;;9.30;;
9138;SDS011;4604;48.616;9.548;2024-01-07T14:24:50;17.30;;;8.87;;
9138;SDS011;4604;48.616;9.548;2024-01-07T14:27:17;17.13;;;8.90;;
9138;SDS011;4604;48.616;9.548;2024-01-07T14:29:44;17.77;;;9.70;;
9138;SDS011;4604;48.616;9.548;2024-01-07T14:32:12;16.07;;;8.83;;
9138;SDS011;4604;48.616;9.548;2024-01-07T14:34:39;16.67;;;9.13;;
9138;SDS011;4604;48.616;9.548;2024-01-07T14:37:07;16.83;;;9.30;;
9138;SDS011;4604;48.616;9.548;2024-01-07T14:39:35;19.10;;;9.30;;
9138;SDS011;4604;48.616;9.548;2024-01-07T14:42:02;15.67;;;8.97;;
9138;SDS011;4604;48.616;9.548;2024-01-07T14:44:29;19.50;;;10.07;;
9138;SDS011;4604;48.616;9.548;2024-01-07T14:46:56;18.13;;;9.73;;
9138;SDS011;4604;48.616;9.548;2024-01-07T14:49:24;18.50;;;10.07;;
9138;SDS011;4604;48.616;9.548;2024-01-07T14:51:51;22.30;;;9.40;;
9138;SDS011;4604;48.616;9.548;2024-01-07T14:54:17;16.87;;;9.53;;
9138;SDS011;4604;48.616;9.548;2024-01-07T14:56:47;19.73;;;10.30;;
9138;SDS011;4604;48.616;9.548;2024-01-07T14:59:14;18.80;;;9.80;;
9138;SDS011;4604;48.616;9.548;2024-01-07T15:01:41;17.63;;;9.57;;
9138;SDS011;4604;48.616;9.548;2024-01-07T15:04:09;18.37;;;9.97;;
9138;SDS011;4604;48.616;9.548;2024-01-07T15:06:41;19.70;;;9.77;;
9138;SDS011;4604;48.616;9.548;2024-01-07T15:09:09;20.97;;;10.97;;
9138;SDS011;4604;48.616;9.548;2024-01-07T15:11:36;20.53;;;9.80;;
9138;SDS011;4604;48.616;9.548;2024-01-07T15:14:03;16.80;;;9.57;;
9138;SDS011;4604;48.616;9.548;2024-01-07T15:16:33;16.57;;;10.33;;
9138;SDS011;4604;48.616;9.548;2024-01-07T15:19:01;17.67;;;8.87;;
9138;SDS011;4604;48.616;9.548;2024-01-07T15:21:27;21.73;;;10.40;;
9138;SDS011;4604;48.616;9.548;2024-01-07T15:23:55;18.70;;;10.73;;
9138;SDS011;4604;48.616;9.548;2024-01-07T15:26:22;19.00;;;10.03;;
9138;SDS011;4604;48.616;9.548;2024-01-07T15:28:49;19.10;;;10.13;;
9138;SDS011;4604;48.616;9.548;2024-01-07T15:31:17;17.13;;;9.47;;
9138;SDS011;4604;48.616;9.548;2024-01-07T15:33:43;16.73;;;9.63;;
9138;SDS011;4604;48.616;9.548;2024-01-07T15:36:10;18.17;;;9.10;;
9138;SDS011;4604;48.616;9.548;2024-01-07T15:38:37;18.17;;;8.87;;
9138;SDS011;4604;48.616;9.548;2024-01-07T15:41:05;19.90;;;10.40;;
9138;SDS011;4604;48.616;9.548;2024-01-07T15:43:31;21.33;;;10.87;;
9138;SDS011;4604;48.616;9.548;2024-01-07T15:45:58;22.53;;;11.07;;
9138;SDS011;4604;48.616;9.548;2024-01-07T15:48:25;19.07;;;10.53;;
9138;SDS011;4604;48.616;9.548;2024-01-07T15:50:51;21.47;;;10.30;;
9138;SDS011;4604;48.616;9.548;2024-01-07T15:53:18;18.33;;;9.93;;